ADDS METAR Data INFO
IDs: Format: Raw Decoded Include TAF

Data at: 1329 UTC 25 Feb 2018

KVPZ 251256Z AUTO 25018KT 9SM OVC019 02/M02 A2983 RMK AO2 PK WND 24030/1157 SLP107 T00171022
KVPZ 251156Z AUTO 24018G28KT 10SM OVC023 02/M02 A2980 RMK AO2 PK WND 27031/1116 SLP096 60003 70004 T00221022 10128 20022 51044
KVPZ 251056Z AUTO 25015KT 10SM OVC019 02/M02 A2977 RMK AO2 PK WND 25034/1044 SLP084 T00221017
KVPZ 250956Z AUTO 26020G26KT 10SM OVC020 03/M01 A2972 RMK AO2 PK WND 26040/0903 SLP067 T00281006
KVPZ 250856Z AUTO 26025G36KT 10SM BKN015 OVC023 04/01 A2967 RMK AO2 PK WND 27041/0822 PRESRR SLP051 60003 T00440011 53028
KVPZ 250851Z AUTO 26027G36KT 10SM BKN014 OVC022 04/02 A2966 RMK AO2 PK WND 27041/0822 PRESRR
KVPZ 250756Z AUTO 26023G39KT 10SM OVC016 08/05 A2959 RMK AO2 PK WND 27039/0749 RAE04 PRESRR SLP022 P0000 T00830050
KVPZ 250728Z AUTO 27020G28KT 10SM BKN014 OVC019 11/08 A2954 RMK AO2 PK WND 26036/0700 RAE04 PRESRR P0000 T01060083
KVPZ 250704Z AUTO 26026G47KT 9SM SCT006 BKN015 OVC033 12/09 A2951 RMK AO2 PK WND 26036/0700 RAE04 PRESRR P0000 T01170094
KVPZ 250656Z AUTO 23030G47KT 4SM -RA BR BKN005 OVC012 13/11 A2950 RMK AO2 PK WND 23047/0655 PRESRR SLP990 P0003 T01280111
KVPZ 250646Z AUTO 21019G29KT 2 1/2SM -RA BR OVC005 12/11 A2948 RMK AO2 PK WND 19029/0642 CIG 002V009 P0003 T01220111
KVPZ 250556Z AUTO 15009KT 2 1/2SM -RA BR OVC003 09/08 A2947 RMK AO2 RAB14 SLP983 P0001 60001 T00890083 10089 20067 400890028 58048
KVPZ 250545Z AUTO 14010KT 2SM -RA BR OVC003 09/08 A2948 RMK AO2 RAB14 P0000 T00890083
KVPZ 250519Z AUTO 13010KT 5SM -RA BR OVC004 09/08 A2950 RMK AO2 RAB14 PRESFR P0000 T00890078
KVPZ 250456Z AUTO 13009KT 8SM OVC005 09/08 A2953 RMK AO2 SLP002 T00890078
KVPZ 250356Z AUTO 11012G21KT 8SM OVC005 08/07 A2957 RMK AO2 SLP015 T00830067
KVPZ 250256Z AUTO 12015G23KT 8SM OVC006 08/06 A2962 RMK AO2 PK WND 12026/0157 SLP034 T00780061 58062
KVPZ 250156Z AUTO 12016G24KT 6SM BR OVC005 07/06 A2969 RMK AO2 PK WND 13026/0142 SLP056 T00720056
KVPZ 250143Z AUTO 12018G26KT 5SM BR OVC004 07/06 A2969 RMK AO2 PK WND 13026/0142 T00670056
KVPZ 250056Z AUTO 12016G23KT 6SM BR OVC005 07/06 A2977 RMK AO2 PRESFR SLP085 T00720056
KVPZ 242356Z AUTO 11013G22KT 7SM OVC008 07/06 A2981 RMK AO2 SLP098 60000 T00720056 10072 20056 58038
KVPZ 242256Z AUTO 11011KT 6SM BR OVC009 07/05 A2987 RMK AO2 RAB11E23 SLP119 P0000 T00720050
KVPZ 242156Z AUTO 11013KT 7SM OVC010 07/04 A2990 RMK AO2 SLP128 T00720044
KVPZ 242056Z AUTO 09014KT 7SM OVC010 07/04 A2992 RMK AO2 SLP137 T00720044 56036
KVPZ 241956Z AUTO 09013KT 7SM OVC010 07/04 A2996 RMK AO2 SLP149 T00670039
KVPZ 241856Z AUTO 08013KT 7SM OVC010 06/03 A2999 RMK AO2 SLP159 T00610033
KVPZ 241756Z AUTO 09013KT 7SM OVC010 06/03 A3003 RMK AO2 PRESFR SLP175 T00560028 10056 20028 58043
KVPZ 241656Z AUTO 10012KT 7SM OVC012 06/02 A3009 RMK AO2 SLP194 T00560022
KVPZ 241611Z AUTO 10011KT 7SM OVC013 04/02 A3012 RMK AO2 T00440017
KVPZ 241556Z AUTO 10012KT 7SM OVC016 05/02 A3013 RMK AO2 SLP208 T00500017
KVPZ 241545Z AUTO 08011KT 6SM HZ SCT012 OVC018 04/02 A3013 RMK AO2 T00440017
KVPZ 241456Z AUTO 10010KT 6SM HZ BKN013 OVC085 03/01 A3016 RMK AO2 SLP219 T00330006 56001
KVPZ 241454Z AUTO 10009KT 6SM HZ BKN013 OVC085 03/01 A3016 RMK AO2
KVPZ 241404Z AUTO 08007KT 6SM HZ SCT014 OVC080 03/00 A3016 RMK AO2 T00280000
KVPZ 241356Z AUTO 07009KT 6SM HZ BKN014 OVC085 03/00 A3016 RMK AO2 SLP219 T00280000
KVPZ 241343Z AUTO 07009KT 6SM HZ OVC014 03/00 A3016 RMK AO2 T00280000
KVPZ 241328Z AUTO 07008KT 8SM BKN015 OVC100 03/00 A3017 RMK AO2 T00280000
KVPZ 241256Z AUTO 07010KT 8SM OVC090 03/00 A3016 RMK AO2 SLP220 T00280000
KVPZ 241156Z AUTO 06009KT 8SM FEW017 OVC090 03/00 A3017 RMK AO2 SLP223 70001 T00280000 10033 20028 55020
KVPZ 241109Z AUTO 05007KT 7SM SCT016 OVC085 03/00 A3017 RMK AO2 T00280000
KVPZ 241056Z AUTO 05009KT 7SM BKN016 OVC090 03/00 A3017 RMK AO2 SLP222 T00280000
KVPZ 240956Z AUTO 04006KT 7SM OVC017 03/00 A3020 RMK AO2 SLP233 T00280000
KVPZ 240856Z AUTO 07004KT 8SM OVC018 03/01 A3023 RMK AO2 SLP243 T00280006 55006
KVPZ 240756Z AUTO 04006KT 7SM OVC017 03/01 A3022 RMK AO2 SLP239 T00330006
KVPZ 240656Z AUTO 02003KT 6SM BR OVC017 03/01 A3023 RMK AO2 SLP242 T00330011
KVPZ 240556Z AUTO 00000KT 7SM OVC016 03/01 A3025 RMK AO2 SLP249 T00330011 10044 20033 400830033 58003
KVPZ 240456Z AUTO 32003KT 8SM OVC015 03/01 A3026 RMK AO2 SLP251 T00330011
KVPZ 240442Z AUTO 33004KT 8SM OVC015 04/01 A3026 RMK AO2 T00390011
KVPZ 240356Z AUTO 25003KT 8SM OVC014 03/01 A3027 RMK AO2 SLP255 T00330011
KVPZ 240256Z AUTO 26004KT 8SM OVC011 03/01 A3026 RMK AO2 SLP252 T00330011 51002
KVPZ 240156Z AUTO 27007KT 9SM OVC011 04/01 A3026 RMK AO2 SLP253 T00390011